Time;durP1;ratioP1;P1;durP2;ratioP2;P2;SDS_P1;SDS_P2;PMS_P1;PMS_P2;Temp;Humidity;BMP_temperature;BMP_pressure;BME280_temperature;BME280_humidity;BME280_pressure;Samples;Min_cycle;Max_cycle;Signal;HPM_P1;HPM_P2
2021/01/16 00:00:40;;;;;;;18.63;4.70;;;;;;;-3.49;82.46;100837.39;119988;1150;23231;-64
2021/01/16 00:03:16;;;;;;;17.30;4.57;;;;;;;-3.51;83.12;100834.25;119974;1150;24605;-63
2021/01/16 00:05:50;;;;;;;24.05;5.85;;;;;;;-3.51;82.53;100834.25;120230;1150;26348;-63
2021/01/16 00:08:24;;;;;;;23.10;4.97;;;;;;;-3.51;82.99;100839.70;120053;1150;23060;-62
2021/01/16 00:10:59;;;;;;;20.93;5.23;;;;;;;-3.53;82.62;100831.89;120375;1149;22945;-64
2021/01/16 00:13:35;;;;;;;17.03;4.03;;;;;;;-3.53;82.52;100831.10;120080;1149;23096;-61
2021/01/16 00:16:06;;;;;;;23.43;6.13;;;;;;;-3.53;82.34;100840.08;120084;1150;23022;-61
2021/01/16 00:18:38;;;;;;;18.00;4.63;;;;;;;-3.52;83.04;100838.91;119896;1149;22982;-61
2021/01/16 00:21:09;;;;;;;17.03;5.47;;;;;;;-3.53;82.88;100842.02;121432;1149;22982;-62
2021/01/16 00:23:40;;;;;;;19.73;5.10;;;;;;;-3.53;83.03;100836.56;120005;1149;22926;-61
2021/01/16 00:26:14;;;;;;;22.13;5.40;;;;;;;-3.56;82.18;100849.00;120001;1150;22936;-61
2021/01/16 00:28:50;;;;;;;21.70;4.60;;;;;;;-3.57;82.48;100852.89;120067;1150;23129;-62
2021/01/16 00:31:21;;;;;;;23.07;4.43;;;;;;;-3.60;83.02;100842.70;120247;1149;23028;-62
2021/01/16 00:33:52;;;;;;;20.23;5.07;;;;;;;-3.63;82.19;100843.45;120327;1149;22950;-62
2021/01/16 00:36:21;;;;;;;;;;;;;;;-3.64;82.92;100836.41;120121;1149;23103;-62
2021/01/16 00:38:57;;;;;;;18.00;3.67;;;;;;;-3.66;82.00;100841.45;120083;1150;21615;-64
2021/01/16 00:41:32;;;;;;;17.77;4.63;;;;;;;-3.68;82.42;100838.31;120368;1149;22926;-63
2021/01/16 00:44:03;;;;;;;18.83;4.17;;;;;;;-3.69;82.33;100846.87;120327;1149;22954;-62
2021/01/16 00:46:35;;;;;;;20.40;4.43;;;;;;;-3.70;82.40;100850.73;120090;1150;23008;-62
2021/01/16 00:49:09;;;;;;;18.00;4.83;;;;;;;-3.72;82.95;100847.59;120350;1149;27835;-64
2021/01/16 00:51:49;;;;;;;18.53;5.27;;;;;;;-3.72;82.16;100847.59;120151;1149;22958;-62
2021/01/16 00:54:20;;;;;;;22.87;5.15;;;;;;;-3.73;82.95;100843.31;120100;1149;23393;-64
2021/01/16 00:56:54;;;;;;;22.57;6.13;;;;;;;-3.75;81.92;100843.69;120151;1149;23408;-62
2021/01/16 00:59:25;;;;;;;17.87;4.13;;;;;;;-3.75;82.68;100842.89;119953;1148;23042;-61
2021/01/16 01:02:15;;;;;;;19.83;4.83;;;;;;;-3.77;83.04;100848.72;120048;1150;22951;-61
2021/01/16 01:04:48;;;;;;;19.60;5.00;;;;;;;-3.78;82.94;100847.13;120057;1149;25941;-63
2021/01/16 01:07:21;;;;;;;17.30;4.90;;;;;;;-3.77;83.16;100847.93;120088;1149;26062;-64
2021/01/16 01:09:53;;;;;;;19.60;4.50;;;;;;;-3.77;82.82;100848.72;120110;1150;22942;-63
2021/01/16 01:12:23;;;;;;;16.70;3.53;;;;;;;-3.77;82.30;100845.20;120137;1149;23115;-61
2021/01/16 01:14:58;;;;;;;20.03;4.03;;;;;;;-3.77;82.43;100843.27;120012;1150;22940;-63
2021/01/16 01:17:29;;;;;;;15.10;3.77;;;;;;;-3.77;82.67;100847.93;120093;1148;22926;-62
2021/01/16 01:20:02;;;;;;;21.87;5.43;;;;;;;-3.79;82.35;100840.13;120176;1150;24352;-62
2021/01/16 01:22:37;;;;;;;18.17;4.00;;;;;;;-3.78;83.12;100846.34;120289;1149;22992;-61
2021/01/16 01:25:10;;;;;;;17.25;4.95;;;;;;;-3.79;82.82;100852.97;120573;1148;26101;-63
2021/01/16 01:27:42;;;;;;;15.17;4.13;;;;;;;-3.82;82.30;100846.30;120034;1149;24712;-62
2021/01/16 01:30:25;;;;;;;14.43;3.43;;;;;;;-3.82;82.95;100845.50;119913;1150;23383;-62
2021/01/16 01:32:58;;;;;;;13.10;3.10;;;;;;;-3.84;82.80;100839.63;120192;1149;22985;-61
2021/01/16 01:35:31;;;;;;;18.63;4.17;;;;;;;-3.85;82.67;100835.34;120142;1150;27601;-64
2021/01/16 01:38:03;;;;;;;13.67;3.43;;;;;;;-3.87;83.13;100849.33;120135;1150;25989;-63
2021/01/16 01:40:36;;;;;;;12.20;2.63;;;;;;;-3.87;83.50;100837.66;120027;1149;22924;-62
2021/01/16 01:43:12;;;;;;;20.25;5.75;;;;;;;-3.88;82.79;100827.88;120171;1149;22930;-64
2021/01/16 01:45:43;;;;;;;19.43;4.40;;;;;;;-3.87;83.24;100835.69;120038;1151;22948;-63
2021/01/16 01:48:15;;;;;;;17.70;4.10;;;;;;;-3.87;83.02;100832.20;120060;1150;27398;-62
2021/01/16 01:50:48;;;;;;;12.43;3.10;;;;;;;-3.87;83.21;100834.92;120153;1149;22994;-63
2021/01/16 01:53:21;;;;;;;18.03;3.73;;;;;;;-3.87;83.34;100835.69;120776;1109;24554;-62
2021/01/16 01:56:03;;;;;;;17.73;4.97;;;;;;;-3.86;83.19;100839.20;120042;1148;26095;-62
2021/01/16 01:58:40;;;;;;;11.60;3.67;;;;;;;-3.85;83.10;100838.07;120325;1149;22957;-62
2021/01/16 02:01:13;;;;;;;16.87;4.47;;;;;;;-3.85;83.86;100841.59;119970;1148;22895;-62
2021/01/16 02:03:45;;;;;;;15.37;4.53;;;;;;;-3.85;83.82;100844.32;120166;1151;22985;-61
2021/01/16 02:06:16;;;;;;;16.50;3.53;;;;;;;-3.84;83.16;100840.42;119878;1149;23246;-61
2021/01/16 02:08:46;;;;;;;12.63;2.93;;;;;;;-3.83;83.00;100828.38;120063;1150;22961;-62
2021/01/16 02:11:22;;;;;;;19.25;3.90;;;;;;;-3.82;83.56;100837.31;119989;1150;22940;-61
2021/01/16 02:13:53;;;;;;;16.93;3.47;;;;;;;-3.80;83.59;100838.53;120096;1150;22933;-62
2021/01/16 02:16:37;;;;;;;14.53;2.87;;;;;;;-3.80;84.03;100841.26;119988;1150;22947;-62
2021/01/16 02:19:14;;;;;;;12.33;2.60;;;;;;;-3.79;84.08;100839.33;120027;1150;22922;-62
2021/01/16 02:21:47;;;;;;;13.00;2.93;;;;;;;-3.79;84.25;100842.84;120075;1150;23017;-62
2021/01/16 02:24:25;;;;;;;15.33;3.17;;;;;;;-3.77;83.93;100832.35;120113;1149;23521;-62
2021/01/16 02:27:14;;;;;;;14.13;3.30;;;;;;;-3.76;84.21;100846.75;120060;1150;22933;-63
2021/01/16 02:29:46;;;;;;;18.80;3.67;;;;;;;-3.77;84.04;100835.08;120085;1150;22998;-62
2021/01/16 02:32:20;;;;;;;15.40;3.47;;;;;;;-3.76;83.95;100838.57;120041;1149;22955;-62
2021/01/16 02:34:53;;;;;;;12.93;2.17;;;;;;;-3.76;83.52;100833.12;120025;1150;22886;-62
2021/01/16 02:38:04;;;;;;;17.07;4.27;;;;;;;-3.76;83.58;100835.84;120080;1149;27707;-62
2021/01/16 02:40:41;;;;;;;17.47;4.53;;;;;;;-3.75;83.65;100834.70;119982;1149;23100;-62
2021/01/16 02:43:31;;;;;;;13.53;3.83;;;;;;;-3.75;83.55;100838.23;120056;1149;26650;-63
2021/01/16 02:46:22;;;;;;;13.65;2.92;;;;;;;-3.75;83.67;100832.77;120000;1149;24590;-61
2021/01/16 02:49:04;;;;;;;17.57;4.95;;;;;;;-3.77;83.50;100834.28;120235;1150;22997;-64
2021/01/16 02:51:41;;;;;;;18.10;4.30;;;;;;;-3.76;83.67;100838.57;119940;1150;22985;-63
2021/01/16 02:54:18;;;;;;;17.15;4.35;;;;;;;-3.77;83.76;100835.08;120144;1149;27832;-62
2021/01/16 02:56:50;;;;;;;16.77;3.37;;;;;;;-3.78;83.63;100838.95;120018;1149;23085;-63
2021/01/16 02:59:21;;;;;;;15.70;3.47;;;;;;;-3.78;83.60;100838.16;120046;1150;23068;-61
2021/01/16 03:01:55;;;;;;;13.10;2.95;;;;;;;-3.80;83.82;100843.19;120020;1150;27451;-62
2021/01/16 03:04:26;;;;;;;14.00;3.17;;;;;;;-3.81;83.55;100830.72;119950;1150;24567;-62
2021/01/16 03:06:59;;;;;;;14.20;2.90;;;;;;;-3.82;84.33;100835.38;120128;1150;22873;-62
2021/01/16 03:09:31;;;;;;;15.75;3.40;;;;;;;-3.81;83.74;100830.72;120076;1149;27418;-62
2021/01/16 03:12:05;;;;;;;18.40;3.30;;;;;;;-3.81;83.47;100831.52;120023;1149;27418;-63
2021/01/16 03:14:37;;;;;;;15.43;3.20;;;;;;;-3.81;84.05;100828.00;120063;1150;26412;-62
2021/01/16 03:17:12;;;;;;;18.37;3.97;;;;;;;-3.81;84.13;100833.45;120099;1149;22935;-62
2021/01/16 03:19:46;;;;;;;17.47;3.87;;;;;;;-3.81;83.63;100833.45;120021;1150;22920;-61
2021/01/16 03:22:24;;;;;;;16.90;3.73;;;;;;;-3.81;83.86;100844.36;120024;1149;22940;-62
2021/01/16 03:24:56;;;;;;;14.20;3.20;;;;;;;-3.81;83.92;100834.25;120159;1150;22933;-63
2021/01/16 03:27:28;;;;;;;13.33;3.73;;;;;;;-3.80;84.24;100830.34;120119;1150;22936;-62
2021/01/16 03:29:59;;;;;;;14.70;3.33;;;;;;;-3.80;84.00;100843.19;120014;1150;24737;-63
2021/01/16 03:32:30;;;;;;;17.17;3.80;;;;;;;-3.81;84.05;100836.17;120292;1149;22988;-64
2021/01/16 03:35:03;;;;;;;15.73;3.97;;;;;;;-3.81;84.37;100838.91;120033;1149;26053;-62
2021/01/16 03:37:35;;;;;;;14.27;4.07;;;;;;;-3.85;83.46;100835.34;120093;1149;22926;-62
2021/01/16 03:40:09;;;;;;;14.73;2.53;;;;;;;-3.86;83.99;100840.00;120174;1149;26027;-63
2021/01/16 03:42:40;;;;;;;17.03;4.20;;;;;;;-3.86;84.10;100840.00;120034;1149;27739;-62
2021/01/16 03:45:15;;;;;;;15.37;3.90;;;;;;;-3.86;83.73;100840.00;120064;1148;23129;-62
2021/01/16 03:47:46;;;;;;;14.80;3.95;;;;;;;-3.86;83.91;100845.45;120067;1150;22936;-63
2021/01/16 03:50:16;;;;;;;14.50;4.15;;;;;;;-3.88;83.76;100834.13;120020;1151;23061;-62
2021/01/16 03:52:49;;;;;;;16.40;4.20;;;;;;;-3.88;84.02;100841.52;119995;1150;22922;-63
2021/01/16 03:55:21;;;;;;;16.03;4.37;;;;;;;-3.89;84.18;100842.69;119994;1149;24522;-63
2021/01/16 03:57:51;;;;;;;13.43;3.50;;;;;;;-3.89;83.95;100834.50;119951;1149;22937;-62
2021/01/16 04:00:23;;;;;;;10.95;2.47;;;;;;;-3.90;83.72;100833.71;120021;1150;22936;-61
2021/01/16 04:02:54;;;;;;;13.47;3.33;;;;;;;-3.91;84.19;100829.39;120203;1150;22961;-61
2021/01/16 04:05:24;;;;;;;16.13;3.97;;;;;;;-3.90;84.04;100832.91;119996;1150;25669;-62
2021/01/16 04:07:54;;;;;;;15.08;3.47;;;;;;;-3.89;84.01;100834.50;120040;1149;26411;-62
2021/01/16 04:10:24;;;;;;;15.83;3.80;;;;;;;-3.90;84.39;100828.25;119980;1150;22930;-62
2021/01/16 04:12:55;;;;;;;17.02;3.25;;;;;;;-3.89;83.65;100826.33;120128;1148;24605;-62
2021/01/16 04:15:25;;;;;;;12.20;3.00;;;;;;;-3.88;84.35;100825.16;120092;1149;22948;-61
2021/01/16 04:17:55;;;;;;;16.57;4.60;;;;;;;-3.88;84.15;100825.16;120113;1149;22926;-62
2021/01/16 04:20:26;;;;;;;13.47;3.93;;;;;;;-3.90;83.96;100827.46;119949;1150;22936;-63
2021/01/16 04:22:55;;;;;;;14.10;3.58;;;;;;;-3.91;84.46;100826.67;119985;1150;24342;-63
2021/01/16 04:25:26;;;;;;;15.70;4.08;;;;;;;-3.92;84.37;100827.05;120012;1149;23376;-63
2021/01/16 04:27:56;;;;;;;13.25;3.20;;;;;;;-3.93;84.27;100828.21;120026;1149;22926;-62
2021/01/16 04:30:27;;;;;;;18.67;4.30;;;;;;;-3.93;84.31;100833.67;120221;1150;22935;-63
2021/01/16 04:32:57;;;;;;;16.87;3.83;;;;;;;-3.95;83.91;100819.61;120056;1149;27828;-62
2021/01/16 04:35:29;;;;;;;17.30;3.25;;;;;;;-3.95;83.76;100814.16;119951;1150;23025;-63
2021/01/16 04:38:00;;;;;;;15.27;3.87;;;;;;;-3.94;84.31;100815.72;120274;1150;22988;-62
2021/01/16 04:40:31;;;;;;;17.90;4.73;;;;;;;-3.94;84.47;100813.78;119954;1150;22916;-63
2021/01/16 04:43:04;;;;;;;15.85;4.50;;;;;;;-3.92;84.48;100824.31;119989;1150;22928;-63
2021/01/16 04:45:35;;;;;;;15.43;3.93;;;;;;;-3.92;84.29;100819.66;120144;1149;23118;-62
2021/01/16 04:48:09;;;;;;;12.70;3.10;;;;;;;-3.91;83.57;100820.45;120268;1149;22951;-62
2021/01/16 04:50:43;;;;;;;17.50;3.20;;;;;;;-3.93;83.89;100820.80;120077;1149;26596;-62
2021/01/16 04:53:17;;;;;;;13.23;3.93;;;;;;;-3.93;84.33;100825.48;120009;1149;22960;-61
2021/01/16 04:55:49;;;;;;;16.97;4.57;;;;;;;-3.93;84.28;100831.70;120202;1149;27370;-60
2021/01/16 04:58:19;;;;;;;14.30;3.57;;;;;;;-3.92;84.36;100832.50;120201;1149;23005;-60
2021/01/16 05:00:54;;;;;;;14.23;3.43;;;;;;;-3.94;84.25;100832.88;120064;1149;25969;-61
2021/01/16 05:03:27;;;;;;;17.70;3.85;;;;;;;-3.94;83.45;100821.17;120140;1149;23012;-62
2021/01/16 05:05:59;;;;;;;14.63;3.30;;;;;;;-3.94;84.20;100821.17;120054;1150;23037;-61
2021/01/16 05:08:30;;;;;;;16.40;4.20;;;;;;;-3.96;83.53;100828.94;120282;1149;24612;-62
2021/01/16 05:11:05;;;;;;;12.75;3.00;;;;;;;-3.97;84.36;100830.87;120020;1149;27273;-62
2021/01/16 05:13:45;;;;;;;15.57;4.23;;;;;;;-3.98;83.71;100823.06;120023;1150;22960;-62
2021/01/16 05:16:21;;;;;;;16.05;4.00;;;;;;;-4.00;84.20;100817.98;120014;1150;26200;-62
2021/01/16 05:18:52;;;;;;;18.43;3.83;;;;;;;-4.01;84.04;100821.08;119977;1150;23031;-63
2021/01/16 05:21:24;;;;;;;18.00;4.07;;;;;;;-4.02;84.25;100825.74;120015;1149;22991;-62
2021/01/16 05:23:56;;;;;;;10.60;3.00;;;;;;;-4.02;84.01;100822.22;120068;1149;23012;-62
2021/01/16 05:26:45;;;;;;;15.60;3.97;;;;;;;-4.03;84.01;100817.94;120107;1149;23022;-62
2021/01/16 05:29:18;;;;;;;12.58;3.27;;;;;;;-4.03;84.10;100820.66;120384;1149;22961;-62
2021/01/16 05:31:50;;;;;;;17.13;3.67;;;;;;;-4.04;83.84;100816.34;120307;1151;23061;-62
2021/01/16 05:34:22;;;;;;;17.23;5.83;;;;;;;-4.03;83.83;100824.16;120199;1149;24590;-63
2021/01/16 05:36:53;;;;;;;11.77;3.17;;;;;;;-4.02;84.17;100809.38;120180;1150;22926;-63
2021/01/16 05:39:26;;;;;;;15.57;4.50;;;;;;;-4.00;84.11;100819.91;120050;1150;22926;-62
2021/01/16 05:42:00;;;;;;;14.87;4.13;;;;;;;-4.01;83.88;100812.91;120238;1149;22942;-62
2021/01/16 05:44:40;;;;;;;16.20;4.60;;;;;;;-4.01;84.45;100815.63;120111;1149;22926;-63
2021/01/16 05:47:10;;;;;;;12.95;3.15;;;;;;;-4.01;84.24;100819.13;120100;1151;24704;-62
2021/01/16 05:49:41;;;;;;;16.30;4.40;;;;;;;-4.02;84.43;100819.50;120048;1150;22986;-62
2021/01/16 05:52:13;;;;;;;15.27;3.97;;;;;;;-4.01;84.44;100818.36;120059;1150;27842;-62
2021/01/16 05:54:45;;;;;;;17.77;4.83;;;;;;;-4.01;84.56;100813.66;120115;1149;23008;-63
2021/01/16 05:57:21;;;;;;;20.40;4.47;;;;;;;-4.00;84.86;100815.25;120084;1149;24385;-62
2021/01/16 05:59:59;;;;;;;13.97;4.77;;;;;;;-4.01;84.27;100815.63;120009;1149;22954;-63
2021/01/16 06:02:34;;;;;;;14.50;4.87;;;;;;;-4.01;83.91;100815.63;120339;1149;24602;-63
2021/01/16 06:05:08;;;;;;;17.23;4.00;;;;;;;-4.00;83.82;100806.28;120194;1149;22938;-61
2021/01/16 06:07:40;;;;;;;18.77;4.30;;;;;;;-4.01;84.28;100810.17;120201;1149;24608;-61
2021/01/16 06:10:18;;;;;;;18.60;5.10;;;;;;;-4.02;84.32;100806.66;120070;1150;23090;-61
2021/01/16 06:12:48;;;;;;;14.87;4.13;;;;;;;-4.03;83.95;100807.03;120066;1150;25970;-62
2021/01/16 06:15:35;;;;;;;15.03;3.67;;;;;;;-4.06;84.58;100811.27;119967;1150;24741;-62
2021/01/16 06:18:14;;;;;;;14.73;4.70;;;;;;;-4.07;84.71;100804.23;120091;1149;23019;-61
2021/01/16 06:20:49;;;;;;;13.90;4.37;;;;;;;-4.06;84.24;100805.81;120125;1149;22951;-62
2021/01/16 06:23:22;;;;;;;13.37;3.43;;;;;;;-4.07;84.19;100808.89;120061;1149;23096;-63
2021/01/16 06:25:55;;;;;;;13.75;3.50;;;;;;;-4.07;83.99;100803.44;120041;1149;23013;-62
2021/01/16 06:28:29;;;;;;;13.93;3.10;;;;;;;-4.08;84.12;100805.39;120140;1150;23090;-62
2021/01/16 06:31:22;;;;;;;11.97;3.27;;;;;;;-4.10;83.54;100813.92;120078;1150;24882;-62
2021/01/16 06:34:05;;;;;;;15.53;3.33;;;;;;;-4.10;84.06;100811.20;120099;1150;22938;-62
2021/01/16 06:36:54;;;;;;;17.57;4.37;;;;;;;-4.12;83.61;100808.05;120144;1150;23090;-62
2021/01/16 06:39:34;;;;;;;13.67;3.27;;;;;;;-4.13;83.94;100809.22;120046;1150;27758;-62
2021/01/16 06:42:28;;;;;;;16.00;4.30;;;;;;;-4.13;84.43;100814.67;120031;1150;22926;-61
2021/01/16 06:45:13;;;;;;;17.67;4.37;;;;;;;-4.13;84.13;100811.94;120094;1149;22935;-63
2021/01/16 06:47:47;;;;;;;19.20;4.30;;;;;;;-4.13;84.00;100816.61;120163;1150;27312;-62
2021/01/16 06:50:21;;;;;;;18.70;4.47;;;;;;;-4.15;84.38;100806.07;120096;1149;22926;-62
2021/01/16 06:52:52;;;;;;;20.10;5.67;;;;;;;-4.14;84.20;100806.86;120105;1150;23119;-62
2021/01/16 06:55:41;;;;;;;20.60;4.30;;;;;;;-4.15;84.06;100806.07;120015;1149;24750;-63
2021/01/16 06:58:26;;;;;;;18.53;3.97;;;;;;;-4.15;83.50;100799.83;119996;1149;25948;-61
2021/01/16 07:01:09;;;;;;;17.00;5.27;;;;;;;-4.18;84.02;100814.20;120080;1150;27791;-63
2021/01/16 07:03:48;;;;;;;14.97;3.67;;;;;;;-4.19;83.56;100813.41;120178;1149;23415;-62
2021/01/16 07:06:20;;;;;;;16.20;3.70;;;;;;;-4.20;83.79;100809.09;120085;1149;26088;-62
2021/01/16 07:08:55;;;;;;;15.63;2.80;;;;;;;-4.20;83.46;100817.27;120136;1149;22962;-62
2021/01/16 07:11:44;;;;;;;16.60;4.13;;;;;;;-4.23;83.06;100828.92;120019;1149;23516;-62
2021/01/16 07:14:18;;;;;;;9.43;2.23;;;;;;;-4.24;83.35;100821.89;120037;1150;22982;-61
2021/01/16 07:16:51;;;;;;;12.83;2.63;;;;;;;-4.23;82.73;100826.20;120003;1149;27854;-62
2021/01/16 07:19:28;;;;;;;12.70;3.27;;;;;;;-4.23;83.33;100831.66;120039;1150;22939;-62
2021/01/16 07:22:06;;;;;;;17.00;3.17;;;;;;;-4.24;82.53;100829.27;120066;1150;22951;-63
2021/01/16 07:24:38;;;;;;;12.47;2.93;;;;;;;-4.24;83.44;100830.06;120260;1150;24510;-63
2021/01/16 07:27:25;;;;;;;11.60;3.23;;;;;;;-4.25;82.59;100841.34;120001;1150;24563;-61
2021/01/16 07:30:08;;;;;;;10.23;2.17;;;;;;;-4.29;83.20;100827.66;120145;1149;22937;-61
2021/01/16 07:32:46;;;;;;;14.17;4.00;;;;;;;-4.32;83.00;100825.66;120035;1149;22922;-62
2021/01/16 07:35:26;;;;;;;12.70;3.10;;;;;;;-4.33;82.52;100826.82;120346;1149;27419;-62
2021/01/16 07:38:01;;;;;;;13.13;3.10;;;;;;;-4.36;83.27;100822.08;120386;1149;22926;-62
2021/01/16 07:40:46;;;;;;;15.00;3.57;;;;;;;-4.35;82.59;100828.33;120202;1149;28295;-62
2021/01/16 07:43:56;;;;;;;20.13;4.13;;;;;;;-4.38;83.08;100831.77;120145;1148;22937;-62
2021/01/16 07:46:37;;;;;;;17.17;3.63;;;;;;;-4.40;83.22;100834.08;119927;1150;23028;-62
2021/01/16 07:49:20;;;;;;;12.60;3.07;;;;;;;-4.42;83.18;100830.92;120078;1148;22926;-63
2021/01/16 07:52:11;;;;;;;17.50;3.27;;;;;;;-4.43;83.38;100821.95;119964;1150;22961;-62
2021/01/16 07:54:53;;;;;;;15.43;3.90;;;;;;;-4.45;82.85;100821.53;120070;1150;22961;-62
2021/01/16 07:57:39;;;;;;;17.77;3.87;;;;;;;-4.46;83.45;100817.25;120075;1149;22955;-62
2021/01/16 08:00:26;;;;;;;11.00;3.03;;;;;;;-4.47;82.54;100826.56;120663;1108;22907;-66
2021/01/16 08:03:24;;;;;;;8.67;1.97;;;;;;;-4.48;82.41;100821.48;120078;1147;23003;-66
2021/01/16 08:06:16;;;;;;;10.40;2.07;;;;;;;-4.49;83.01;100823.41;120059;1148;22921;-67
2021/01/16 08:09:08;;;;;;;12.93;3.72;;;;;;;-4.50;82.17;100827.30;120152;1148;22914;-66
2021/01/16 08:11:56;;;;;;;15.67;2.93;;;;;;;-4.49;82.97;100825.38;120124;1148;22935;-65
2021/01/16 08:14:35;;;;;;;10.93;2.80;;;;;;;-4.50;82.71;100821.85;120126;1148;22918;-65
2021/01/16 08:17:19;;;;;;;16.23;2.97;;;;;;;-4.50;82.50;100813.68;120122;1148;23043;-64
2021/01/16 08:20:28;;;;;;;9.33;2.43;;;;;;;-4.52;82.26;100812.47;120169;1148;22925;-68
2021/01/16 08:23:50;;;;;;;14.43;3.13;;;;;;;-4.56;81.98;100823.31;120040;1148;24215;-65
2021/01/16 08:26:24;;;;;;;15.13;2.93;;;;;;;-4.60;82.81;100817.02;120177;1148;22919;-64
2021/01/16 08:29:21;;;;;;;15.20;3.50;;;;;;;-4.62;82.02;100815.80;120009;1148;27198;-63
2021/01/16 08:32:13;;;;;;;10.57;2.37;;;;;;;-4.66;81.23;100809.50;120124;1148;23049;-63
2021/01/16 08:34:59;;;;;;;11.85;2.55;;;;;;;-4.69;81.95;100807.48;120034;1148;24692;-63
2021/01/16 08:37:39;;;;;;;10.82;2.55;;;;;;;-4.69;82.03;100813.73;120100;1148;25773;-64
2021/01/16 08:40:43;;;;;;;15.08;3.00;;;;;;;-4.71;81.75;100818.76;120173;1148;27790;-64
2021/01/16 08:43:35;;;;;;;16.10;3.80;;;;;;;-4.70;81.95;100814.90;120167;1148;22925;-66
2021/01/16 08:46:21;;;;;;;19.27;3.77;;;;;;;-4.70;82.15;100812.17;120178;1148;24596;-66
2021/01/16 08:49:14;;;;;;;13.30;2.77;;;;;;;-4.68;82.23;100825.42;120151;1148;22927;-64
2021/01/16 08:51:58;;;;;;;15.97;3.53;;;;;;;-4.70;81.63;100817.63;120110;1148;22925;-64
2021/01/16 08:55:07;;;;;;;12.77;3.10;;;;;;;-4.71;82.02;100812.52;120216;1148;22949;-63
2021/01/16 08:57:42;;;;;;;14.50;3.33;;;;;;;-4.69;81.75;100810.22;120160;1148;22921;-64
2021/01/16 09:00:21;;;;;;;19.80;3.10;;;;;;;-4.66;82.04;100812.23;120122;1148;22949;-64
2021/01/16 09:03:19;;;;;;;12.43;2.67;;;;;;;-4.65;81.57;100814.58;120009;1148;22963;-65
2021/01/16 09:06:16;;;;;;;11.43;1.67;;;;;;;-4.64;80.92;100810.72;120021;1148;22911;-64
2021/01/16 09:08:51;;;;;;;11.73;2.30;;;;;;;-4.62;81.02;100808.42;120136;1148;27356;-64
2021/01/16 09:11:27;;;;;;;10.20;2.10;;;;;;;-4.59;81.11;100806.91;120088;1148;22908;-66
2021/01/16 09:14:03;;;;;;;10.85;1.90;;;;;;;-4.57;80.99;100816.27;120090;1148;27231;-66
2021/01/16 09:16:45;;;;;;;10.27;1.63;;;;;;;-4.54;80.70;100803.86;120067;1148;22972;-66
2021/01/16 09:19:33;;;;;;;12.20;1.77;;;;;;;-4.51;79.28;100819.50;120025;1148;27704;-65
2021/01/16 09:22:35;;;;;;;10.63;2.00;;;;;;;-4.53;79.40;100814.39;120143;1148;22991;-63
2021/01/16 09:25:32;;;;;;;10.17;1.60;;;;;;;-4.53;78.64;100811.67;119857;1148;22970;-63
2021/01/16 09:28:13;;;;;;;10.63;1.80;;;;;;;-4.50;80.09;100821.06;120178;1148;22946;-63
2021/01/16 09:30:48;;;;;;;9.23;1.70;;;;;;;-4.45;79.73;100821.53;120401;1148;22935;-64
2021/01/16 09:33:29;;;;;;;10.73;1.83;;;;;;;-4.40;79.61;100817.72;120078;1148;22899;-63
2021/01/16 09:36:03;;;;;;;10.07;1.80;;;;;;;-4.33;80.02;100826.82;120194;1148;23035;-65
2021/01/16 09:38:41;;;;;;;10.63;2.17;;;;;;;-4.30;79.22;100833.45;120234;1148;23045;-63
2021/01/16 09:41:45;;;;;;;8.93;1.73;;;;;;;-4.32;78.80;100817.47;120102;1148;23213;-63
2021/01/16 09:44:36;;;;;;;12.20;2.20;;;;;;;-4.33;79.69;100817.84;120089;1148;22868;-65
2021/01/16 09:47:49;;;;;;;12.93;1.40;;;;;;;-4.32;78.74;100805.78;119873;1148;27391;-63
2021/01/16 09:50:39;;;;;;;9.23;1.67;;;;;;;-4.30;79.27;100811.65;120137;1148;22912;-64
2021/01/16 09:56:56;;;;;;;13.00;2.35;;;;;;;-4.22;79.86;100805.19;119966;1148;22924;-63
2021/01/16 09:59:31;;;;;;;13.97;2.43;;;;;;;-4.14;80.33;100806.86;120048;1148;22913;-63
2021/01/16 10:02:15;;;;;;;7.97;1.70;;;;;;;-4.04;79.55;100794.53;120601;1148;22910;-63
2021/01/16 10:05:10;;;;;;;12.20;2.30;;;;;;;-3.94;80.59;100791.17;120085;1148;24590;-64
2021/01/16 10:07:46;;;;;;;9.10;2.27;;;;;;;-3.85;80.09;100794.42;120141;1148;22941;-62
2021/01/16 10:10:46;;;;;;;9.87;2.27;;;;;;;-3.80;80.42;100781.24;120107;1148;22977;-63
2021/01/16 10:13:40;;;;;;;8.20;2.05;;;;;;;-3.77;79.09;100794.16;120089;1148;22882;-64
2021/01/16 10:16:21;;;;;;;9.83;1.67;;;;;;;-3.75;79.75;100780.94;120168;1148;22904;-65
2021/01/16 10:19:21;;;;;;;9.70;1.83;;;;;;;-3.73;80.03;100773.16;120046;1148;22938;-69
2021/01/16 10:21:59;;;;;;;10.53;2.30;;;;;;;-3.71;79.52;100770.86;120153;1148;22905;-63
2021/01/16 10:24:45;;;;;;;10.93;1.70;;;;;;;-3.67;79.91;100759.98;120048;1148;22924;-62
2021/01/16 10:27:58;;;;;;;10.90;2.17;;;;;;;-3.65;80.17;100757.66;120138;1147;23200;-68
2021/01/16 10:30:59;;;;;;;14.57;2.80;;;;;;;-3.66;79.58;100756.11;119678;1151;23097;-68
2021/01/16 10:34:07;;;;;;;11.30;3.17;;;;;;;-3.63;79.68;100758.87;119775;1151;23090;-67
2021/01/16 10:36:45;;;;;;;12.83;3.83;;;;;;;-3.60;79.41;100752.66;120183;1151;22888;-64
2021/01/16 10:39:19;;;;;;;15.37;3.93;;;;;;;-3.58;80.04;100758.53;121141;1151;22937;-68
2021/01/16 10:42:12;;;;;;;16.57;4.17;;;;;;;-3.58;79.85;100744.88;119369;1151;22951;-67
2021/01/16 10:44:47;;;;;;;12.23;3.40;;;;;;;-3.58;79.46;100741.39;121247;1151;22967;-73
2021/01/16 10:47:44;;;;;;;11.53;3.20;;;;;;;-3.58;79.81;100738.66;119712;1150;24756;-62
2021/01/16 10:50:32;;;;;;;17.35;5.00;;;;;;;-3.56;80.65;100730.89;119781;1151;23969;-64
2021/01/16 10:53:34;;;;;;;16.33;3.83;;;;;;;-3.55;80.14;100719.59;119453;1151;27755;-66
2021/01/16 10:56:25;;;;;;;17.33;3.70;;;;;;;-3.55;79.92;100713.34;119763;1153;22930;-62
2021/01/16 10:59:36;;;;;;;18.55;4.85;;;;;;;-3.53;80.09;100706.36;119424;1151;23282;-62
2021/01/16 11:02:17;;;;;;;15.67;4.47;;;;;;;-3.49;80.03;100701.72;120597;1151;23482;-61
2021/01/16 11:05:45;;;;;;;20.57;5.23;;;;;;;-3.47;80.50;100696.67;119454;1151;28102;-63
2021/01/16 11:08:34;;;;;;;18.23;3.90;;;;;;;-3.41;80.97;100695.18;120285;1149;22927;-63
2021/01/16 11:11:33;;;;;;;16.07;4.13;;;;;;;-3.39;79.80;100687.40;119891;1150;23077;-62
2021/01/16 11:14:10;;;;;;;15.57;3.57;;;;;;;-3.38;80.26;100674.54;120917;1148;22966;-62
2021/01/16 11:16:59;;;;;;;17.75;4.67;;;;;;;-3.38;80.48;100669.88;119862;1149;25980;-62
2021/01/16 11:19:46;;;;;;;16.20;4.10;;;;;;;-3.34;80.17;100672.62;120328;1148;22889;-63
2021/01/16 11:25:44;;;;;;;13.73;3.50;;;;;;;-3.25;79.68;100672.33;119996;1150;22920;-62
2021/01/16 11:28:27;;;;;;;12.80;3.35;;;;;;;-3.25;80.03;100661.41;120047;1148;22921;-62
2021/01/16 11:31:11;;;;;;;13.17;2.93;;;;;;;-3.27;80.35;100659.83;120115;1149;23019;-62
2021/01/16 11:34:03;;;;;;;13.53;3.10;;;;;;;-3.27;79.37;100651.63;120048;1148;22909;-62
2021/01/16 11:37:00;;;;;;;15.37;3.10;;;;;;;-3.24;79.78;100652.04;120061;1150;24732;-62
2021/01/16 11:39:55;;;;;;;15.03;3.60;;;;;;;-3.25;79.83;100647.76;119982;1150;22942;-62
2021/01/16 11:42:53;;;;;;;10.35;2.55;;;;;;;-3.24;79.43;100635.66;119945;1148;22909;-64
2021/01/16 11:45:32;;;;;;;12.90;2.97;;;;;;;-3.27;79.97;100645.41;120299;1148;23338;-62
2021/01/16 11:48:13;;;;;;;13.93;3.37;;;;;;;-3.27;80.31;100631.77;120387;1150;22931;-62
2021/01/16 11:50:53;;;;;;;17.33;4.27;;;;;;;-3.27;80.21;100634.49;119866;1150;23345;-62
2021/01/16 11:53:47;;;;;;;14.30;3.67;;;;;;;-3.28;79.82;100630.17;121301;1148;22969;-63
2021/01/16 11:56:22;;;;;;;12.77;2.97;;;;;;;-3.28;80.49;100635.64;119863;1148;27377;-62
2021/01/16 11:59:10;;;;;;;14.40;3.10;;;;;;;-3.29;80.34;100634.09;120194;1148;22927;-63
2021/01/16 12:01:49;;;;;;;16.65;4.10;;;;;;;-3.34;79.86;100627.02;119886;1148;22927;-63
2021/01/16 12:04:31;;;;;;;15.87;4.07;;;;;;;-3.36;80.17;100629.34;119999;1148;22920;-65
2021/01/16 12:07:12;;;;;;;16.03;4.53;;;;;;;-3.38;79.97;100619.95;120148;1148;22915;-64
2021/01/16 12:09:56;;;;;;;16.37;3.27;;;;;;;-3.38;79.76;100619.95;119929;1148;22938;-65
2021/01/16 12:12:42;;;;;;;16.07;3.77;;;;;;;-3.40;80.63;100611.35;121048;1147;24546;-62